Time;durP1;ratioP1;P1;durP2;ratioP2;P2;SDS_P1;SDS_P2;PMS_P1;PMS_P2;Temp;Humidity;BMP_temperature;BMP_pressure;BME280_temperature;BME280_humidity;BME280_pressure;Samples;Min_cycle;Max_cycle;Signal;HPM_P1;HPM_P2
2021/10/08 00:01:23;;;;;;;17.95;7.60;;;16.90;99.90;;;;;;4976215;28;20059;-80
2021/10/08 00:03:52;;;;;;;17.00;7.78;;;17.00;99.90;;;;;;4950990;29;20047;-85
2021/10/08 00:06:38;;;;;;;18.48;8.55;;;16.90;99.90;;;;;;4992939;28;20053;-86
2021/10/08 00:09:08;;;;;;;19.23;8.55;;;17.00;99.90;;;;;;4965555;28;20060;-87
2021/10/08 00:11:42;;;;;;;22.73;8.68;;;16.90;99.90;;;;;;4975806;28;20062;-81
2021/10/08 00:14:22;;;;;;;16.17;7.82;;;17.00;99.90;;;;;;4949671;29;20066;-81
2021/10/08 00:16:54;;;;;;;17.20;7.55;;;16.90;99.90;;;;;;4963816;29;20066;-82
2021/10/08 00:19:25;;;;;;;13.75;6.68;;;17.00;99.90;;;;;;4983968;28;20065;-82
2021/10/08 00:21:54;;;;;;;16.50;7.18;;;16.90;99.90;;;;;;4986631;28;20051;-83
2021/10/08 00:24:24;;;;;;;;;;;17.00;99.90;;;;;;4955970;29;20051;-83
2021/10/08 00:26:54;;;;;;;18.67;8.48;;;16.90;99.90;;;;;;4961423;29;19929;-81
2021/10/08 00:29:22;;;;;;;19.02;8.25;;;16.90;99.90;;;;;;4970458;29;20039;-80
2021/10/08 00:31:53;;;;;;;18.40;7.78;;;16.90;99.90;;;;;;4941160;29;20054;-80
2021/10/08 00:34:23;;;;;;;15.32;7.63;;;16.90;99.90;;;;;;4974889;29;20059;-81
2021/10/08 00:36:53;;;;;;;14.30;7.25;;;16.90;99.90;;;;;;4957767;29;20057;-79
2021/10/08 00:39:51;;;;;;;16.55;7.85;;;16.90;99.90;;;;;;4980205;28;20039;-82
2021/10/08 00:42:26;;;;;;;18.80;7.63;;;16.90;99.90;;;;;;4957315;29;20058;-79
2021/10/08 00:45:07;;;;;;;12.98;6.43;;;16.90;99.90;;;;;;4967633;29;20046;-80
2021/10/08 00:47:41;;;;;;;14.43;6.13;;;16.60;99.90;;;;;;4971980;28;20058;-81
2021/10/08 00:50:11;;;;;;;15.90;6.25;;;16.90;99.90;;;;;;4969278;29;20043;-81
2021/10/08 00:52:44;;;;;;;10.80;6.43;;;16.90;99.90;;;;;;4956256;29;20065;-82
2021/10/08 00:55:28;;;;;;;15.85;6.38;;;16.90;99.90;;;;;;4985737;28;20053;-79
2021/10/08 00:58:06;;;;;;;17.05;7.68;;;17.10;99.90;;;;;;4971272;29;20051;-80
2021/10/08 01:00:41;;;;;;;16.00;7.35;;;16.90;99.90;;;;;;4970333;28;20048;-81
2021/10/08 01:03:31;;;;;;;13.40;6.63;;;16.90;99.90;;;;;;4986723;28;20048;-82
2021/10/08 01:06:30;;;;;;;13.13;6.47;;;16.50;99.90;;;;;;4941248;29;20051;-84
2021/10/08 01:09:02;;;;;;;14.93;6.63;;;16.80;99.90;;;;;;4973464;28;20358;-79
2021/10/08 01:11:36;;;;;;;14.65;6.65;;;16.80;99.90;;;;;;4965051;28;20055;-82
2021/10/08 01:14:07;;;;;;;12.18;5.72;;;15.60;99.90;;;;;;4967942;28;20043;-81
2021/10/08 01:16:43;;;;;;;14.35;6.47;;;16.80;99.90;;;;;;4955856;29;20043;-81
2021/10/08 01:19:13;;;;;;;16.45;7.05;;;16.80;99.90;;;;;;4954949;29;20057;-81
2021/10/08 01:21:49;;;;;;;19.25;7.07;;;16.80;99.90;;;;;;4978319;28;20663;-80
2021/10/08 01:24:21;;;;;;;15.95;8.07;;;16.80;99.90;;;;;;4973061;28;20069;-82
2021/10/08 01:26:52;;;;;;;13.73;7.55;;;16.80;99.90;;;;;;4990931;28;20054;-82
2021/10/08 01:29:45;;;;;;;17.75;7.03;;;16.80;99.90;;;;;;4971933;28;20043;-82
2021/10/08 01:32:25;;;;;;;13.30;6.47;;;16.80;99.90;;;;;;4987183;28;20047;-83
2021/10/08 01:34:57;;;;;;;16.13;7.00;;;17.50;99.90;;;;;;4940043;28;20055;-81
2021/10/08 01:37:26;;;;;;;16.67;6.97;;;16.90;99.90;;;;;;4972782;28;20049;-80
2021/10/08 01:39:56;;;;;;;13.40;6.57;;;16.90;99.90;;;;;;4988539;28;20054;-83
2021/10/08 01:42:26;;;;;;;13.23;6.32;;;17.00;99.90;;;;;;4990777;28;20046;-81
2021/10/08 01:45:18;;;;;;;18.63;7.55;;;16.80;99.90;;;;;;4982700;28;20072;-82
2021/10/08 01:47:50;;;;;;;13.98;6.28;;;16.90;99.90;;;;;;4956959;28;20057;-81
2021/10/08 01:50:26;;;;;;;14.15;6.40;;;16.80;99.90;;;;;;4977628;28;20042;-85
2021/10/08 01:52:57;;;;;;;14.45;6.10;;;16.90;99.90;;;;;;4974286;28;20062;-86
2021/10/08 01:55:27;;;;;;;13.52;6.80;;;16.90;99.90;;;;;;4991250;28;20393;-81
2021/10/08 01:58:01;;;;;;;12.80;6.85;;;16.80;99.90;;;;;;4974335;28;20039;-80
2021/10/08 02:00:33;;;;;;;22.83;6.85;;;16.90;99.90;;;;;;4991506;28;20046;-81
2021/10/08 02:03:22;;;;;;;13.43;6.13;;;17.30;99.90;;;;;;4978301;28;20057;-80
2021/10/08 02:05:59;;;;;;;17.23;6.47;;;16.80;99.90;;;;;;4973931;28;20057;-82
2021/10/08 02:08:39;;;;;;;16.13;6.57;;;16.90;99.90;;;;;;4944496;28;20041;-80
2021/10/08 02:11:16;;;;;;;13.07;6.43;;;16.00;99.90;;;;;;4969997;28;20046;-81
2021/10/08 02:13:45;;;;;;;16.08;6.07;;;15.90;99.90;;;;;;4961359;28;20061;-82
2021/10/08 02:16:26;;;;;;;14.38;5.75;;;16.90;99.90;;;;;;4993465;28;20030;-81
2021/10/08 02:19:04;;;;;;;15.93;5.85;;;16.80;99.90;;;;;;4971761;28;20046;-81
2021/10/08 02:21:37;;;;;;;18.25;7.47;;;16.80;99.90;;;;;;4953778;29;20059;-81
2021/10/08 02:24:12;;;;;;;12.15;5.28;;;16.80;99.90;;;;;;4971807;28;20039;-83
2021/10/08 02:26:48;;;;;;;13.00;6.38;;;16.70;99.90;;;;;;4969929;28;20055;-80
2021/10/08 02:29:27;;;;;;;13.38;6.55;;;16.70;99.90;;;;;;4952701;28;20047;-79
2021/10/08 02:31:58;;;;;;;13.13;6.13;;;16.70;99.90;;;;;;4954475;29;20059;-80
2021/10/08 02:34:38;;;;;;;15.40;5.50;;;16.70;99.90;;;;;;4970289;29;20047;-80
2021/10/08 02:37:06;;;;;;;8.40;4.60;;;16.60;99.90;;;;;;4970627;29;20047;-83
2021/10/08 02:39:38;;;;;;;13.43;5.75;;;16.60;99.90;;;;;;4967805;29;20047;-79
2021/10/08 02:42:09;;;;;;;11.13;4.88;;;16.60;99.90;;;;;;4971096;28;20045;-81
2021/10/08 02:44:40;;;;;;;7.55;3.22;;;16.60;99.90;;;;;;4951848;29;20051;-81
2021/10/08 02:47:11;;;;;;;13.48;4.63;;;16.60;99.90;;;;;;4952439;29;20491;-82
2021/10/08 02:49:39;;;;;;;;;;;16.50;99.90;;;;;;4970556;28;20058;-82
2021/10/08 02:52:12;;;;;;;13.60;4.30;;;16.50;99.90;;;;;;4970030;28;19926;-80
2021/10/08 02:55:02;;;;;;;9.77;4.28;;;16.50;99.90;;;;;;4970049;29;20055;-81
2021/10/08 02:57:31;;;;;;;12.60;4.68;;;16.40;99.90;;;;;;4965959;29;20049;-83
2021/10/08 03:00:00;;;;;;;9.98;4.28;;;16.50;99.90;;;;;;4963310;28;20183;-81
2021/10/08 03:02:28;;;;;;;13.35;3.30;;;16.40;99.90;;;;;;4966133;29;20043;-80
2021/10/08 03:04:57;;;;;;;10.65;3.83;;;16.40;99.90;;;;;;4966078;28;20039;-81
2021/10/08 03:07:43;;;;;;;10.25;4.45;;;16.40;99.90;;;;;;4970082;28;20054;-82
2021/10/08 03:10:18;;;;;;;8.80;3.92;;;16.50;99.90;;;;;;4965098;29;20043;-85
2021/10/08 03:12:47;;;;;;;12.68;4.25;;;16.50;99.90;;;;;;4934739;29;20043;-81
2021/10/08 03:15:16;;;;;;;9.02;3.85;;;16.30;99.90;;;;;;4964469;29;20610;-80
2021/10/08 03:17:46;;;;;;;9.65;3.85;;;16.30;99.90;;;;;;4965906;28;20066;-83
2021/10/08 03:20:16;;;;;;;9.30;4.10;;;16.30;99.90;;;;;;4965859;28;20043;-84
2021/10/08 03:22:45;;;;;;;9.52;3.00;;;16.00;99.90;;;;;;4965646;28;20518;-83
2021/10/08 03:25:16;;;;;;;11.95;3.33;;;16.30;99.90;;;;;;4965581;28;20043;-80
2021/10/08 03:27:45;;;;;;;13.88;4.00;;;16.30;99.90;;;;;;4964847;29;20055;-82
2021/10/08 03:30:15;;;;;;;16.95;3.67;;;16.20;99.90;;;;;;4981088;28;20549;-80
2021/10/08 03:32:43;;;;;;;6.38;3.25;;;16.20;99.90;;;;;;4966012;29;20047;-82
2021/10/08 03:35:17;;;;;;;7.10;2.80;;;16.10;99.90;;;;;;4963527;28;20039;-83
2021/10/08 03:38:11;;;;;;;8.57;4.07;;;16.20;99.90;;;;;;4961211;29;20051;-82
2021/10/08 03:41:25;;;;;;;11.65;3.47;;;16.20;99.90;;;;;;4965167;28;20043;-80
2021/10/08 03:43:53;;;;;;;9.15;3.47;;;16.10;99.90;;;;;;4978147;28;20059;-82
2021/10/08 03:46:39;;;;;;;7.32;3.60;;;16.10;99.90;;;;;;4972072;28;20053;-80
2021/10/08 03:51:37;;;;;;;10.02;3.50;;;16.10;99.90;;;;;;4964196;29;20528;-80
2021/10/08 03:54:05;;;;;;;8.45;3.38;;;16.20;99.90;;;;;;4965313;29;20826;-80
2021/10/08 03:56:34;;;;;;;8.20;3.42;;;16.20;99.90;;;;;;4964827;28;20058;-80
2021/10/08 03:59:02;;;;;;;5.70;3.33;;;16.20;99.90;;;;;;4963571;29;20062;-81
2021/10/08 04:01:36;;;;;;;10.75;3.92;;;16.10;99.90;;;;;;4963666;28;20169;-81
2021/10/08 04:04:22;;;;;;;7.22;2.67;;;16.10;99.90;;;;;;4940915;29;20055;-82
2021/10/08 04:06:52;;;;;;;11.50;2.95;;;16.10;99.90;;;;;;4948710;29;20082;-81
2021/10/08 04:09:21;;;;;;;9.43;2.78;;;16.10;99.90;;;;;;4964845;29;20058;-81
2021/10/08 04:11:53;;;;;;;10.77;2.83;;;17.00;99.90;;;;;;4965498;28;20070;-85
2021/10/08 04:14:30;;;;;;;7.38;2.53;;;16.00;99.90;;;;;;4965333;29;20047;-81
2021/10/08 04:16:59;;;;;;;9.32;3.25;;;16.00;99.90;;;;;;4964954;28;20047;-81
2021/10/08 04:19:30;;;;;;;9.88;3.53;;;16.00;99.90;;;;;;4967194;28;20055;-83
2021/10/08 04:22:19;;;;;;;5.13;2.15;;;16.00;99.90;;;;;;4953264;29;20729;-81
2021/10/08 04:24:48;;;;;;;3.25;1.85;;;16.00;99.90;;;;;;4949668;29;20047;-82
2021/10/08 04:27:23;;;;;;;5.60;1.88;;;16.00;99.90;;;;;;4948248;29;20051;-83
2021/10/08 04:29:54;;;;;;;9.02;2.45;;;15.90;99.90;;;;;;4933194;29;20658;-80
2021/10/08 04:32:22;;;;;;;6.15;2.60;;;16.00;99.90;;;;;;4947441;29;20059;-83
2021/10/08 04:34:51;;;;;;;5.18;1.85;;;15.90;99.90;;;;;;4965001;28;20050;-82
2021/10/08 04:37:22;;;;;;;7.93;2.25;;;16.00;99.90;;;;;;4951625;28;20289;-81
2021/10/08 04:40:15;;;;;;;9.73;3.00;;;16.00;99.90;;;;;;4949296;29;20053;-82
2021/10/08 04:42:43;;;;;;;7.57;3.50;;;16.00;99.90;;;;;;4962970;29;20035;-82
2021/10/08 04:45:15;;;;;;;4.90;2.05;;;15.90;99.90;;;;;;4948506;29;20047;-81
2021/10/08 04:47:46;;;;;;;10.75;2.75;;;15.90;99.90;;;;;;4965307;28;20051;-80
2021/10/08 04:50:14;;;;;;;10.55;3.33;;;16.00;99.90;;;;;;4961612;29;20047;-82
2021/10/08 04:52:44;;;;;;;6.32;2.03;;;15.90;99.90;;;;;;4961578;28;20051;-82
2021/10/08 04:55:13;;;;;;;7.72;2.22;;;16.00;99.90;;;;;;4945497;29;20043;-82
2021/10/08 04:57:42;;;;;;;5.55;1.83;;;16.00;99.90;;;;;;4946796;29;20403;-80
2021/10/08 05:00:11;;;;;;;6.53;2.35;;;16.00;99.90;;;;;;4927812;28;20051;-80
2021/10/08 05:02:40;;;;;;;8.32;2.40;;;15.90;99.90;;;;;;4940919;29;20070;-81
2021/10/08 05:05:09;;;;;;;9.23;2.63;;;15.90;99.90;;;;;;4943966;29;20045;-81
2021/10/08 05:07:37;;;;;;;5.85;2.65;;;16.00;99.90;;;;;;4937011;29;20051;-79
2021/10/08 05:10:22;;;;;;;5.28;2.38;;;16.00;99.90;;;;;;4949335;29;20043;-80
2021/10/08 05:12:52;;;;;;;9.52;2.60;;;16.00;99.90;;;;;;4921226;28;20058;-81
2021/10/08 05:15:23;;;;;;;6.75;2.50;;;16.00;99.90;;;;;;4972784;28;20059;-82
2021/10/08 05:17:51;;;;;;;7.28;3.25;;;16.00;99.90;;;;;;4962737;29;20036;-79
2021/10/08 05:20:22;;;;;;;5.18;2.50;;;16.50;99.90;;;;;;4946602;29;20066;-80
2021/10/08 05:23:08;;;;;;;8.68;2.72;;;16.00;99.90;;;;;;4962940;28;20044;-80
2021/10/08 05:25:38;;;;;;;7.97;2.67;;;16.00;99.90;;;;;;4932561;29;20067;-81
2021/10/08 05:28:07;;;;;;;5.10;2.17;;;16.00;99.90;;;;;;4932359;29;20051;-83
2021/10/08 05:30:39;;;;;;;7.18;2.78;;;16.00;99.90;;;;;;4947807;29;20055;-81
2021/10/08 05:33:12;;;;;;;7.13;2.45;;;16.00;99.90;;;;;;4929284;29;20536;-80
2021/10/08 05:35:43;;;;;;;;;;;15.90;99.90;;;;;;4945924;29;20051;-84
2021/10/08 05:38:19;;;;;;;11.60;3.22;;;16.10;99.90;;;;;;4931851;29;19934;-83
2021/10/08 05:40:50;;;;;;;4.88;2.58;;;15.90;99.90;;;;;;4946387;29;20039;-85
2021/10/08 05:43:22;;;;;;;6.75;2.70;;;15.90;99.90;;;;;;4922913;29;20054;-80
2021/10/08 05:45:55;;;;;;;6.50;2.47;;;15.90;99.90;;;;;;4930242;29;20055;-82
2021/10/08 05:48:29;;;;;;;11.73;3.33;;;15.80;99.90;;;;;;4955216;29;20039;-84
2021/10/08 05:50:57;;;;;;;9.45;3.88;;;15.80;99.90;;;;;;4933953;29;20055;-82
2021/10/08 05:53:25;;;;;;;5.85;2.47;;;15.80;99.90;;;;;;4929006;29;20040;-81
2021/10/08 05:55:54;;;;;;;4.95;2.78;;;15.30;99.90;;;;;;4933499;29;20058;-80
2021/10/08 05:58:22;;;;;;;6.60;3.00;;;15.70;99.90;;;;;;4928905;29;20047;-81
2021/10/08 06:00:52;;;;;;;5.35;2.53;;;15.70;99.90;;;;;;4944743;29;20055;-83
2021/10/08 06:03:31;;;;;;;8.00;3.03;;;15.70;99.90;;;;;;4942610;29;20557;-83
2021/10/08 06:06:04;;;;;;;6.15;2.10;;;15.30;99.90;;;;;;4953752;28;20047;-82
2021/10/08 06:08:52;;;;;;;8.82;3.28;;;15.60;99.90;;;;;;4952269;28;20044;-82
2021/10/08 06:11:56;;;;;;;11.50;3.20;;;15.50;99.90;;;;;;4939898;29;20062;-84
2021/10/08 06:14:37;;;;;;;9.00;3.47;;;15.50;99.90;;;;;;4952584;28;20039;-82
2021/10/08 06:17:05;;;;;;;7.20;2.67;;;15.40;99.90;;;;;;4910885;29;20050;-82
2021/10/08 06:19:37;;;;;;;8.50;3.25;;;15.40;99.90;;;;;;4930706;29;20061;-82
2021/10/08 06:22:12;;;;;;;6.05;2.85;;;15.30;99.90;;;;;;4944449;29;20052;-83
2021/10/08 06:25:22;;;;;;;11.10;4.05;;;15.10;99.90;;;;;;4955578;29;20044;-83
2021/10/08 06:28:03;;;;;;;9.07;3.55;;;14.70;99.90;;;;;;4960444;28;20267;-82
2021/10/08 06:30:42;;;;;;;10.02;3.55;;;15.20;99.90;;;;;;4944538;29;20059;-84
2021/10/08 06:33:22;;;;;;;9.57;3.67;;;15.20;99.90;;;;;;4945504;29;20051;-82
2021/10/08 06:35:57;;;;;;;8.95;3.63;;;15.10;99.90;;;;;;4942942;29;20055;-82
2021/10/08 06:38:30;;;;;;;7.68;3.50;;;15.00;99.90;;;;;;4957853;28;20209;-82
2021/10/08 06:41:12;;;;;;;10.80;3.45;;;15.10;99.90;;;;;;4939684;29;20055;-84
2021/10/08 06:44:09;;;;;;;14.65;5.47;;;15.00;99.90;;;;;;4924608;29;20066;-82
2021/10/08 06:47:23;;;;;;;12.65;4.72;;;15.00;99.90;;;;;;4942802;29;20078;-86
2021/10/08 06:49:52;;;;;;;17.20;5.72;;;15.10;99.90;;;;;;4944488;29;20043;-84
2021/10/08 06:52:23;;;;;;;13.43;4.75;;;15.00;99.90;;;;;;4938448;29;20567;-83
2021/10/08 06:54:51;;;;;;;15.25;5.57;;;15.20;99.90;;;;;;4932891;29;20063;-82
2021/10/08 06:57:32;;;;;;;12.40;4.68;;;15.10;99.90;;;;;;4946628;29;20051;-83
2021/10/08 07:00:05;;;;;;;12.50;4.80;;;14.80;99.90;;;;;;4944715;29;20048;-83
2021/10/08 07:03:01;;;;;;;54.95;8.30;;;15.20;99.90;;;;;;4928654;29;20052;-83
2021/10/08 07:05:37;;;;;;;49.45;11.05;;;15.20;99.90;;;;;;4947386;29;20544;-81
2021/10/08 07:08:25;;;;;;;31.48;6.28;;;15.20;99.90;;;;;;4944250;29;20144;-83
2021/10/08 07:10:59;;;;;;;17.50;4.63;;;15.30;99.90;;;;;;4950400;28;20087;-81
2021/10/08 07:13:27;;;;;;;8.25;4.13;;;15.30;99.90;;;;;;4951724;28;20051;-83
2021/10/08 07:15:58;;;;;;;11.98;3.97;;;15.30;99.90;;;;;;4968008;28;20055;-83
2021/10/08 07:18:52;;;;;;;26.65;7.22;;;15.40;99.90;;;;;;4936794;29;20043;-83
2021/10/08 07:21:39;;;;;;;16.25;7.72;;;15.40;99.90;;;;;;4921721;29;20060;-82
2021/10/08 07:24:17;;;;;;;15.38;5.68;;;15.40;99.90;;;;;;4941406;29;20040;-82
2021/10/08 07:26:59;;;;;;;15.82;6.65;;;15.30;99.90;;;;;;4922641;29;20048;-89
2021/10/08 07:29:33;;;;;;;20.38;6.70;;;15.60;99.90;;;;;;4936429;29;20059;-81
2021/10/08 07:32:05;;;;;;;14.57;6.53;;;15.60;99.90;;;;;;4923265;29;20060;-84
2021/10/08 07:34:36;;;;;;;17.77;6.30;;;15.60;99.90;;;;;;4941989;29;20051;-84
2021/10/08 07:37:18;;;;;;;;;;;;;;;;;;;;;
2021/10/08 07:40:25;;;;;;;13.93;5.75;;;15.70;99.90;;;;;;4945179;29;20056;-85
2021/10/08 07:43:00;;;;;;;16.73;6.45;;;15.30;99.90;;;;;;4930146;29;20065;-84
2021/10/08 07:45:31;;;;;;;15.75;6.32;;;15.80;99.90;;;;;;4946176;29;20055;-82
2021/10/08 07:47:59;;;;;;;13.55;5.85;;;15.80;99.90;;;;;;4939787;29;20059;-82
2021/10/08 07:50:55;;;;;;;13.15;7.03;;;15.90;99.90;;;;;;4939943;29;20055;-84
2021/10/08 07:53:40;;;;;;;15.27;5.72;;;15.90;99.90;;;;;;4924193;29;20052;-85
2021/10/08 07:56:54;;;;;;;19.73;6.30;;;15.90;99.90;;;;;;4918839;29;20063;-81
2021/10/08 07:59:36;;;;;;;16.77;5.97;;;14.90;99.90;;;;;;4926789;29;20055;-83
2021/10/08 08:02:58;;;;;;;15.88;6.60;;;16.00;99.90;;;;;;4850565;29;20058;-83
2021/10/08 08:05:33;;;;;;;10.27;4.82;;;16.10;99.90;;;;;;4860445;29;20201;-84
2021/10/08 08:08:06;;;;;;;12.15;4.55;;;16.10;99.90;;;;;;4855099;29;20054;-85
2021/10/08 08:11:26;;;;;;;;;;;;;;;;;;;;;
2021/10/08 08:14:17;;;;;;;14.93;5.38;;;16.10;99.90;;;;;;4847578;29;20395;-84
2021/10/08 08:16:59;;;;;;;13.43;4.88;;;16.90;99.90;;;;;;4850971;29;20627;-84
2021/10/08 08:19:56;;;;;;;14.55;6.25;;;16.20;99.90;;;;;;4891044;28;20062;-86
2021/10/08 08:22:27;;;;;;;20.25;4.85;;;16.40;99.90;;;;;;4943535;29;20058;-84
2021/10/08 08:25:05;;;;;;;14.00;5.07;;;16.30;99.90;;;;;;4936952;29;20044;-88
2021/10/08 08:27:33;;;;;;;10.00;4.53;;;17.60;99.90;;;;;;4938753;29;20056;-85
2021/10/08 08:30:07;;;;;;;11.05;4.00;;;16.40;99.90;;;;;;4933961;29;20047;-84
2021/10/08 08:33:03;;;;;;;;;;;;;;;;;;;;;
2021/10/08 08:35:53;;;;;;;11.20;4.32;;;16.40;99.90;;;;;;4940932;29;20055;-85
2021/10/08 08:39:14;;;;;;;;;;;;;;;;;;;;;
2021/10/08 08:41:48;;;;;;;11.63;4.05;;;17.10;99.90;;;;;;4936039;29;20059;-86
2021/10/08 08:44:35;;;;;;;14.27;5.05;;;16.60;99.90;;;;;;4957850;28;20043;-81
2021/10/08 08:47:05;;;;;;;9.50;4.78;;;16.60;99.90;;;;;;4937370;29;20051;-89
2021/10/08 08:49:33;;;;;;;9.63;4.93;;;16.70;99.90;;;;;;4924469;29;20044;-85
2021/10/08 08:52:01;;;;;;;8.63;4.60;;;16.70;99.90;;;;;;4947744;29;20052;-81
2021/10/08 08:54:57;;;;;;;10.30;3.75;;;16.70;99.90;;;;;;4944351;29;20048;-84
2021/10/08 08:58:05;;;;;;;12.75;4.07;;;16.80;99.90;;;;;;4961563;28;20829;-83
2021/10/08 09:01:18;;;;;;;12.07;4.75;;;16.80;99.90;;;;;;4922910;29;20050;-85
2021/10/08 09:04:28;;;;;;;;;;;;;;;;;;;;;
2021/10/08 09:08:13;;;;;;;12.52;5.20;;;16.90;99.90;;;;;;4938824;29;20055;-85
2021/10/08 09:10:51;;;;;;;9.77;3.88;;;16.90;99.90;;;;;;4937291;29;20048;-85
2021/10/08 09:13:29;;;;;;;12.00;4.00;;;16.90;99.90;;;;;;4944149;29;20063;-88
2021/10/08 09:16:11;;;;;;;9.90;3.40;;;17.00;99.90;;;;;;4950469;28;20047;-83
2021/10/08 09:18:50;;;;;;;9.18;4.72;;;16.90;99.90;;;;;;4952765;29;20059;-83
2021/10/08 09:21:21;;;;;;;12.48;3.63;;;17.10;99.90;;;;;;4972039;28;20059;-86
2021/10/08 09:23:49;;;;;;;11.07;4.30;;;17.10;99.90;;;;;;4942957;29;20051;-90
2021/10/08 09:26:34;;;;;;;10.27;3.25;;;17.10;99.90;;;;;;4938331;29;20256;-84
2021/10/08 09:29:28;;;;;;;8.45;3.53;;;17.70;99.90;;;;;;4937910;29;20056;-89
2021/10/08 09:31:58;;;;;;;10.75;3.72;;;17.10;99.90;;;;;;4953785;28;20061;-85
2021/10/08 09:35:05;;;;;;;13.80;4.05;;;17.30;99.90;;;;;;4935451;29;20510;-84
2021/10/08 09:38:17;;;;;;;9.88;4.20;;;17.40;99.90;;;;;;4941084;29;20063;-85
2021/10/08 09:41:06;;;;;;;10.88;4.13;;;17.50;99.90;;;;;;4939306;29;20063;-84
2021/10/08 09:43:52;;;;;;;11.32;4.28;;;17.50;99.90;;;;;;4935303;29;20063;-84
2021/10/08 09:47:14;;;;;;;12.68;3.95;;;17.70;99.90;;;;;;4949659;29;20047;-84
2021/10/08 09:50:20;;;;;;;12.25;4.18;;;17.70;99.90;;;;;;4940858;29;20191;-84
2021/10/08 09:52:53;;;;;;;14.43;4.40;;;18.50;99.90;;;;;;4940504;29;20039;-82
2021/10/08 09:55:29;;;;;;;12.57;4.65;;;17.00;99.90;;;;;;4942775;29;20047;-83
2021/10/08 09:58:03;;;;;;;11.25;4.32;;;17.90;99.90;;;;;;4941276;29;20416;-82
2021/10/08 10:00:57;;;;;;;10.10;3.80;;;18.00;99.90;;;;;;4937739;29;20044;-82
2021/10/08 10:03:36;;;;;;;10.63;4.07;;;17.90;99.90;;;;;;4913340;29;20063;-84
2021/10/08 10:06:14;;;;;;;11.00;3.95;;;17.90;99.90;;;;;;4936761;29;20056;-82
2021/10/08 10:08:43;;;;;;;8.23;3.53;;;18.00;99.90;;;;;;4956803;28;20044;-81
2021/10/08 10:11:22;;;;;;;9.23;4.43;;;18.10;99.90;;;;;;4943132;29;20058;-81
2021/10/08 10:13:53;;;;;;;7.78;3.42;;;18.20;99.90;;;;;;4959114;28;20055;-81
2021/10/08 10:16:21;;;;;;;;;;;18.40;99.90;;;;;;4942465;29;20052;-82
2021/10/08 10:18:54;;;;;;;7.70;3.75;;;18.50;99.90;;;;;;4944924;29;19942;-85
2021/10/08 10:21:36;;;;;;;7.97;2.20;;;18.50;99.90;;;;;;4934967;29;20066;-83
2021/10/08 10:24:12;;;;;;;7.93;2.42;;;18.60;99.90;;;;;;4937530;29;20062;-82
2021/10/08 10:26:43;;;;;;;8.60;3.13;;;18.70;99.90;;;;;;4937852;29;20063;-82
2021/10/08 10:29:12;;;;;;;6.78;2.90;;;18.20;99.90;;;;;;4943067;29;20055;-83
2021/10/08 10:31:50;;;;;;;8.50;2.40;;;18.80;99.90;;;;;;4941808;29;20323;-88
2021/10/08 10:34:41;;;;;;;8.15;2.72;;;18.90;99.90;;;;;;4941105;29;20088;-83
2021/10/08 10:37:42;;;;;;;6.97;2.58;;;18.80;99.90;;;;;;4962217;28;20059;-83
2021/10/08 10:40:22;;;;;;;6.15;2.10;;;18.80;99.90;;;;;;4936511;29;20050;-81
2021/10/08 10:43:19;;;;;;;8.95;3.30;;;18.90;99.90;;;;;;4948304;29;20044;-86
2021/10/08 10:46:45;;;;;;;;;;;;;;;;;;;;;
2021/10/08 10:49:50;;;;;;;9.23;2.05;;;19.30;99.90;;;;;;4952655;28;20106;-85
2021/10/08 10:52:26;;;;;;;5.57;2.13;;;20.20;99.90;;;;;;4955987;28;20055;-84
2021/10/08 10:55:14;;;;;;;5.13;2.20;;;19.30;99.90;;;;;;4947057;28;20064;-82
2021/10/08 10:57:55;;;;;;;5.75;1.83;;;19.30;99.90;;;;;;4943593;29;20058;-87
2021/10/08 11:00:32;;;;;;;7.80;3.03;;;19.20;99.90;;;;;;4953895;28;20052;-85
2021/10/08 11:04:17;;;;;;;7.75;3.17;;;19.30;99.90;;;;;;4957262;28;20031;-85
2021/10/08 11:14:36;;;;;;;5.85;2.17;;;19.20;99.90;;;;;;4932605;29;20047;-81
2021/10/08 11:17:42;;;;;;;5.65;2.25;;;19.00;99.90;;;;;;4948923;29;20051;-80
2021/10/08 11:20:42;;;;;;;5.57;2.10;;;18.80;99.90;;;;;;4961658;28;20068;-80
2021/10/08 11:23:29;;;;;;;5.38;1.95;;;18.60;99.90;;;;;;4944867;29;20044;-83
2021/10/08 11:26:03;;;;;;;7.22;2.08;;;18.50;99.90;;;;;;4948464;29;20270;-82
2021/10/08 11:28:40;;;;;;;5.53;1.67;;;18.40;99.90;;;;;;4949809;29;20459;-80
2021/10/08 11:31:15;;;;;;;4.00;1.63;;;18.40;99.90;;;;;;4946041;29;20067;-82
2021/10/08 11:33:49;;;;;;;5.25;1.92;;;18.40;99.90;;;;;;4954803;28;20047;-78
2021/10/08 11:36:26;;;;;;;3.25;1.77;;;18.40;99.90;;;;;;4937253;29;20052;-80
2021/10/08 11:39:12;;;;;;;5.57;1.73;;;18.50;99.90;;;;;;4937259;29;20581;-78
2021/10/08 11:41:42;;;;;;;3.97;1.70;;;18.60;99.90;;;;;;4961188;28;20051;-77
2021/10/08 11:44:19;;;;;;;3.63;1.52;;;18.60;99.90;;;;;;4928213;29;20039;-80
2021/10/08 11:47:30;;;;;;;5.70;1.83;;;18.70;99.90;;;;;;4936040;29;20064;-79
2021/10/08 11:52:39;;;;;;;4.20;1.58;;;18.70;99.90;;;;;;4942249;29;20051;-81
2021/10/08 11:55:27;;;;;;;6.65;1.83;;;18.80;99.90;;;;;;4914436;29;20062;-78
2021/10/08 11:58:04;;;;;;;2.90;1.40;;;18.80;99.90;;;;;;4926403;29;20513;-81
2021/10/08 12:00:41;;;;;;;4.75;1.25;;;18.80;99.90;;;;;;4954216;28;20048;-81
2021/10/08 12:03:11;;;;;;;4.88;2.08;;;18.80;99.90;;;;;;4936361;29;20056;-78
2021/10/08 12:06:04;;;;;;;5.22;1.95;;;18.80;99.90;;;;;;4938751;29;20058;-86
2021/10/08 12:08:38;;;;;;;9.38;2.15;;;18.70;99.90;;;;;;4956859;28;20054;-83
2021/10/08 12:11:08;;;;;;;3.83;2.10;;;18.70;99.90;;;;;;4951489;28;20040;-78
2021/10/08 12:13:53;;;;;;;5.53;2.22;;;18.70;99.90;;;;;;4942894;29;20054;-82
2021/10/08 12:16:43;;;;;;;6.30;3.10;;;18.60;99.90;;;;;;4943958;29;20047;-81
2021/10/08 12:19:14;;;;;;;6.60;3.25;;;18.70;99.90;;;;;;4937824;29;20052;-82
2021/10/08 12:21:47;;;;;;;10.32;3.70;;;18.70;99.90;;;;;;4947001;29;20051;-84
2021/10/08 12:24:20;;;;;;;5.97;3.08;;;18.70;99.90;;;;;;4964053;29;20061;-87
2021/10/08 12:26:57;;;;;;;7.63;3.78;;;18.70;99.90;;;;;;4942231;29;20051;-81
2021/10/08 12:29:48;;;;;;;7.15;4.60;;;18.70;99.90;;;;;;4943910;28;20059;-79
2021/10/08 12:32:26;;;;;;;8.40;4.88;;;18.60;99.90;;;;;;4957244;28;20123;-80
2021/10/08 12:34:55;;;;;;;10.13;5.93;;;18.60;99.90;;;;;;4927463;28;20490;-78
2021/10/08 12:37:33;;;;;;;12.38;5.85;;;18.60;99.90;;;;;;4962095;28;20047;-78
2021/10/08 12:40:17;;;;;;;12.18;6.78;;;18.50;99.90;;;;;;4940703;29;20055;-84
2021/10/08 12:42:58;;;;;;;10.02;5.38;;;18.50;99.90;;;;;;4930165;29;20066;-82
2021/10/08 12:45:37;;;;;;;12.25;5.72;;;18.50;99.90;;;;;;4970471;28;20632;-80
2021/10/08 12:48:15;;;;;;;10.63;5.43;;;18.50;99.90;;;;;;4956023;29;20067;-82
2021/10/08 12:50:42;;;;;;;10.38;5.63;;;18.60;99.90;;;;;;4970239;28;20047;-78
2021/10/08 12:53:18;;;;;;;15.10;6.00;;;18.60;99.90;;;;;;4954552;29;20069;-80
2021/10/08 12:55:48;;;;;;;10.50;5.22;;;19.50;99.90;;;;;;4946565;29;20055;-77
2021/10/08 12:58:20;;;;;;;9.88;5.40;;;18.50;99.90;;;;;;4962550;29;21335;-78
2021/10/08 13:00:57;;;;;;;14.02;7.10;;;18.50;99.90;;;;;;4933527;29;20051;-78
2021/10/08 13:03:44;;;;;;;15.80;6.22;;;18.50;99.90;;;;;;4933109;28;20047;-79
2021/10/08 13:06:18;;;;;;;13.48;5.65;;;18.50;99.90;;;;;;4947027;29;20067;-78
2021/10/08 13:09:14;;;;;;;20.08;6.22;;;18.50;99.90;;;;;;4943404;29;20057;-81
2021/10/08 13:11:45;;;;;;;14.50;5.88;;;18.50;99.90;;;;;;4950018;29;20576;-76
2021/10/08 13:14:21;;;;;;;15.68;6.70;;;18.30;99.90;;;;;;4944120;29;20043;-77
2021/10/08 13:16:50;;;;;;;12.68;5.45;;;18.50;99.90;;;;;;4956963;29;20055;-80
2021/10/08 13:19:35;;;;;;;14.80;6.57;;;18.50;99.90;;;;;;4949245;29;20054;-78
2021/10/08 13:22:05;;;;;;;14.68;7.25;;;18.50;99.90;;;;;;4926270;29;20051;-81
2021/10/08 13:24:37;;;;;;;17.25;7.57;;;18.60;99.90;;;;;;4964378;28;20051;-87
2021/10/08 13:27:59;;;;;;;;;;;;;;;;;;;;;
2021/10/08 13:31:33;;;;;;;13.90;7.15;;;18.60;99.90;;;;;;4871104;29;20056;-87
2021/10/08 13:34:26;;;;;;;18.27;8.10;;;18.60;99.90;;;;;;4918297;29;20069;-84
2021/10/08 13:37:15;;;;;;;20.65;8.75;;;18.60;99.90;;;;;;4905812;29;20071;-84
2021/10/08 13:40:25;;;;;;;17.85;7.70;;;18.60;99.90;;;;;;4844670;29;20061;-85
2021/10/08 13:43:44;;;;;;;18.13;8.25;;;18.30;99.90;;;;;;4819469;29;20066;-86
2021/10/08 13:46:48;;;;;;;12.68;6.68;;;18.70;99.90;;;;;;4833550;29;20089;-85
2021/10/08 14:00:55;;;;;;;14.48;7.03;;;18.60;99.90;;;;;;4960688;29;20054;-84
2021/10/08 14:04:25;;;;;;;13.30;6.30;;;19.50;99.90;;;;;;4863480;29;20060;-85
2021/10/08 14:12:25;;;;;;;14.05;8.07;;;18.70;99.90;;;;;;4919702;29;20055;-89
2021/10/08 14:15:01;;;;;;;12.50;6.65;;;18.70;99.90;;;;;;4940096;29;20055;-80
2021/10/08 14:17:31;;;;;;;12.85;6.82;;;18.70;99.90;;;;;;4943564;29;20063;-87
2021/10/08 14:20:03;;;;;;;16.90;7.78;;;18.70;99.90;;;;;;4947661;29;20048;-82
2021/10/08 14:23:01;;;;;;;16.52;6.07;;;18.70;99.90;;;;;;4920536;29;20063;-85
2021/10/08 14:25:33;;;;;;;12.43;5.22;;;18.70;99.90;;;;;;4951618;29;20065;-82